Time;durP1;ratioP1;P1;durP2;ratioP2;P2;SDS_P1;SDS_P2;PMS_P1;PMS_P2;Temp;Humidity;BMP_temperature;BMP_pressure;BME280_temperature;BME280_humidity;BME280_pressure;Samples;Min_cycle;Max_cycle;Signal;HPM_P1;HPM_P2
2022/09/29 00:00:21;;;;;;;7.55;3.92;;;;;;;;;;4976957;28;92547;-72
2022/09/29 00:02:48;;;;;;;5.35;3.70;;;;;;;;;;4985191;28;93508;-72
2022/09/29 00:05:14;;;;;;;7.70;3.95;;;;;;;;;;4977631;28;95107;-71
2022/09/29 00:07:40;;;;;;;5.78;3.45;;;;;;;;;;4976475;28;95632;-72
2022/09/29 00:10:07;;;;;;;4.60;3.85;;;;;;;;;;4977872;28;94462;-72
2022/09/29 00:12:33;;;;;;;4.80;4.03;;;;;;;;;;4990923;28;92578;-72
2022/09/29 00:14:59;;;;;;;8.75;4.53;;;;;;;;;;4981069;28;94227;-72
2022/09/29 00:17:25;;;;;;;8.43;4.50;;;;;;;;;;4972548;28;92494;-72
2022/09/29 00:19:52;;;;;;;7.05;4.28;;;;;;;;;;4971213;28;93165;-71
2022/09/29 00:22:18;;;;;;;8.75;4.07;;;;;;;;;;4990731;28;92714;-72
2022/09/29 00:24:45;;;;;;;4.38;3.85;;;;;;;;;;4975948;28;92471;-71
2022/09/29 00:27:15;;;;;;;12.95;4.55;;;;;;;;;;4978224;28;93114;-73
2022/09/29 00:29:41;;;;;;;8.15;4.05;;;;;;;;;;4979035;28;96238;-73
2022/09/29 00:32:08;;;;;;;6.35;3.30;;;;;;;;;;4976259;28;92381;-71
2022/09/29 00:34:34;;;;;;;4.05;3.08;;;;;;;;;;4995587;28;94013;-71
2022/09/29 00:37:00;;;;;;;4.05;3.42;;;;;;;;;;4980495;28;92578;-71
2022/09/29 00:39:27;;;;;;;5.35;3.25;;;;;;;;;;4967407;28;93157;-72
2022/09/29 00:41:53;;;;;;;3.15;2.55;;;;;;;;;;4974676;28;94036;-72
2022/09/29 00:44:19;;;;;;;4.30;3.10;;;;;;;;;;4975482;28;92543;-72
2022/09/29 00:46:50;;;;;;;7.05;3.30;;;;;;;;;;4976886;28;93156;-72
2022/09/29 00:49:45;;;;;;;4.68;3.38;;;;;;;;;;4976154;28;92638;-71
2022/09/29 00:52:11;;;;;;;5.40;3.50;;;;;;;;;;4962949;28;92992;-71
2022/09/29 00:54:40;;;;;;;4.35;3.50;;;;;;;;;;4983131;28;95067;-72
2022/09/29 00:57:07;;;;;;;5.72;3.55;;;;;;;;;;4978436;28;92445;-72
2022/09/29 00:59:37;;;;;;;3.30;3.00;;;;;;;;;;4969934;28;93103;-72
2022/09/29 01:02:04;;;;;;;10.25;3.33;;;;;;;;;;4982491;28;93383;-72
2022/09/29 01:04:31;;;;;;;4.93;4.15;;;;;;;;;;4973279;28;92481;-71
2022/09/29 01:06:57;;;;;;;4.03;2.97;;;;;;;;;;4989467;28;93166;-71
2022/09/29 01:09:36;;;;;;;7.18;4.82;;;;;;;;;;4980237;28;93386;-72
2022/09/29 01:12:02;;;;;;;5.68;4.75;;;;;;;;;;4969290;28;93560;-71
2022/09/29 01:14:30;;;;;;;5.50;4.72;;;;;;;;;;4972751;28;93451;-72
2022/09/29 01:16:57;;;;;;;6.10;5.45;;;;;;;;;;4973633;28;93506;-72
2022/09/29 01:19:32;;;;;;;7.65;5.95;;;;;;;;;;4977824;28;94904;-72
2022/09/29 01:22:04;;;;;;;7.65;5.30;;;;;;;;;;4987027;28;93743;-71
2022/09/29 01:24:49;;;;;;;6.50;5.80;;;;;;;;;;4984367;28;92503;-71
2022/09/29 01:27:19;;;;;;;7.93;5.88;;;;;;;;;;4987636;28;94215;-71
2022/09/29 01:30:04;;;;;;;7.87;6.47;;;;;;;;;;4972561;28;93598;-71
2022/09/29 01:32:30;;;;;;;10.07;5.72;;;;;;;;;;4976315;28;92495;-71
2022/09/29 01:35:05;;;;;;;7.72;5.63;;;;;;;;;;4976477;28;93192;-72
2022/09/29 01:37:46;;;;;;;6.53;4.75;;;;;;;;;;4980971;28;92810;-71
2022/09/29 01:40:14;;;;;;;7.90;4.60;;;;;;;;;;4983771;28;92466;-71
2022/09/29 01:42:59;;;;;;;7.55;5.13;;;;;;;;;;4991859;28;94149;-71
2022/09/29 01:45:28;;;;;;;6.25;5.43;;;;;;;;;;4976149;28;95196;-72
2022/09/29 01:48:00;;;;;;;5.68;4.35;;;;;;;;;;4974814;28;95590;-71
2022/09/29 01:50:31;;;;;;;9.90;5.30;;;;;;;;;;4979106;28;93421;-72
2022/09/29 01:53:03;;;;;;;7.95;4.90;;;;;;;;;;4982401;28;92669;-72
2022/09/29 01:55:31;;;;;;;9.13;4.80;;;;;;;;;;4973544;28;93079;-72
2022/09/29 01:57:58;;;;;;;6.03;4.53;;;;;;;;;;4974048;28;93462;-72
2022/09/29 02:00:30;;;;;;;4.97;4.22;;;;;;;;;;4975531;28;93961;-72
2022/09/29 02:02:59;;;;;;;6.85;4.13;;;;;;;;;;4975519;28;93302;-71
2022/09/29 02:05:32;;;;;;;5.80;4.25;;;;;;;;;;4982501;28;93556;-71
2022/09/29 02:08:05;;;;;;;7.00;3.95;;;;;;;;;;4986437;28;94510;-72
2022/09/29 02:10:33;;;;;;;6.30;3.95;;;;;;;;;;4988688;28;95781;-72
2022/09/29 02:13:01;;;;;;;6.40;3.88;;;;;;;;;;4971205;28;92618;-72
2022/09/29 02:15:30;;;;;;;4.80;3.65;;;;;;;;;;4975101;28;93851;-71
2022/09/29 02:18:00;;;;;;;4.55;3.72;;;;;;;;;;4977310;28;93354;-72
2022/09/29 02:20:26;;;;;;;6.00;4.17;;;;;;;;;;4980901;28;92564;-71
2022/09/29 02:22:54;;;;;;;5.00;3.88;;;;;;;;;;4975214;28;93030;-72
2022/09/29 02:25:21;;;;;;;4.95;3.83;;;;;;;;;;4980119;28;94460;-71
2022/09/29 02:27:49;;;;;;;3.88;3.30;;;;;;;;;;4981624;28;91897;-71
2022/09/29 02:30:15;;;;;;;3.88;3.40;;;;;;;;;;4973717;28;93763;-71
2022/09/29 02:32:42;;;;;;;8.43;3.90;;;;;;;;;;4991632;28;92542;-72
2022/09/29 02:35:10;;;;;;;3.67;3.38;;;;;;;;;;4974430;28;95227;-71
2022/09/29 02:37:46;;;;;;;4.47;3.53;;;;;;;;;;4987134;28;93456;-71
2022/09/29 02:40:12;;;;;;;4.68;3.38;;;;;;;;;;4994423;28;92371;-71
2022/09/29 02:42:55;;;;;;;4.28;3.63;;;;;;;;;;4988735;28;93239;-72
2022/09/29 02:45:37;;;;;;;4.60;3.33;;;;;;;;;;4974043;28;92451;-72
2022/09/29 02:48:18;;;;;;;4.65;3.65;;;;;;;;;;4974151;28;92511;-71
2022/09/29 02:51:11;;;;;;;3.97;3.58;;;;;;;;;;4977975;28;93434;-71
2022/09/29 02:53:56;;;;;;;5.22;3.30;;;;;;;;;;4963680;28;92342;-72
2022/09/29 02:56:37;;;;;;;4.88;2.88;;;;;;;;;;4959981;28;92447;-71
2022/09/29 02:59:09;;;;;;;2.85;2.40;;;;;;;;;;4954718;28;93388;-71
2022/09/29 03:01:45;;;;;;;4.95;2.60;;;;;;;;;;4978562;28;94960;-72
2022/09/29 03:04:11;;;;;;;2.47;2.17;;;;;;;;;;4979217;28;96344;-72
2022/09/29 03:06:37;;;;;;;2.83;2.63;;;;;;;;;;4979773;28;94455;-72
2022/09/29 03:09:03;;;;;;;4.13;2.60;;;;;;;;;;4972497;28;92685;-72
2022/09/29 03:11:30;;;;;;;2.55;2.35;;;;;;;;;;4988790;28;93101;-72
2022/09/29 03:13:56;;;;;;;8.10;2.65;;;;;;;;;;4985964;28;92634;-71
2022/09/29 03:16:23;;;;;;;2.35;2.25;;;;;;;;;;4979782;28;93086;-71
2022/09/29 03:18:49;;;;;;;2.60;2.40;;;;;;;;;;4976653;28;93134;-71
2022/09/29 03:21:16;;;;;;;3.42;3.13;;;;;;;;;;4973720;28;92439;-72
2022/09/29 03:23:42;;;;;;;2.80;2.60;;;;;;;;;;4986109;28;93219;-72
2022/09/29 03:26:08;;;;;;;5.50;2.70;;;;;;;;;;4989022;28;95838;-72
2022/09/29 03:28:35;;;;;;;4.68;2.60;;;;;;;;;;4985293;28;92878;-71
2022/09/29 03:31:06;;;;;;;3.60;2.55;;;;;;;;;;4988180;28;94145;-72
2022/09/29 03:33:32;;;;;;;3.50;3.13;;;;;;;;;;4983854;28;93646;-72
2022/09/29 03:35:59;;;;;;;6.78;3.05;;;;;;;;;;4973248;28;93310;-71
2022/09/29 03:38:25;;;;;;;3.13;2.63;;;;;;;;;;4973337;28;93327;-72
2022/09/29 03:40:51;;;;;;;3.75;2.40;;;;;;;;;;4983129;28;93183;-71
2022/09/29 03:43:18;;;;;;;8.80;3.03;;;;;;;;;;4986707;28;93415;-72
2022/09/29 03:45:51;;;;;;;5.18;2.53;;;;;;;;;;4987498;28;94422;-72
2022/09/29 03:48:18;;;;;;;3.15;2.95;;;;;;;;;;4958808;28;93320;-72
2022/09/29 03:50:48;;;;;;;5.03;2.60;;;;;;;;;;4968957;28;95027;-71
2022/09/29 03:53:15;;;;;;;2.97;2.70;;;;;;;;;;4982011;28;93463;-71
2022/09/29 03:55:45;;;;;;;3.08;2.72;;;;;;;;;;4983856;28;92443;-72
2022/09/29 03:58:12;;;;;;;2.67;2.38;;;;;;;;;;4984359;28;94341;-72
2022/09/29 04:00:38;;;;;;;3.72;3.33;;;;;;;;;;4988463;28;92914;-72
2022/09/29 04:03:05;;;;;;;3.08;2.85;;;;;;;;;;4982404;28;93140;-72
2022/09/29 04:05:37;;;;;;;2.88;2.53;;;;;;;;;;4957703;28;92491;-72
2022/09/29 04:08:04;;;;;;;7.45;2.85;;;;;;;;;;4980482;28;92146;-72
2022/09/29 04:10:32;;;;;;;5.40;2.70;;;;;;;;;;4978512;28;92486;-72
2022/09/29 04:12:58;;;;;;;2.90;2.65;;;;;;;;;;4984973;28;94033;-71
2022/09/29 04:15:25;;;;;;;7.68;2.92;;;;;;;;;;4987519;28;96624;-71
2022/09/29 04:17:51;;;;;;;3.90;3.00;;;;;;;;;;4979987;28;95474;-71
2022/09/29 04:20:17;;;;;;;3.97;2.90;;;;;;;;;;4983627;28;93271;-71
2022/09/29 04:22:43;;;;;;;15.23;3.30;;;;;;;;;;4991864;28;94187;-71
2022/09/29 04:25:10;;;;;;;8.05;3.30;;;;;;;;;;4977548;28;93342;-72
2022/09/29 04:27:36;;;;;;;3.58;3.28;;;;;;;;;;4977869;28;92878;-71
2022/09/29 04:30:03;;;;;;;4.38;3.13;;;;;;;;;;4975754;28;93025;-71
2022/09/29 04:32:29;;;;;;;5.55;3.28;;;;;;;;;;4979663;28;92950;-72
2022/09/29 04:34:56;;;;;;;6.63;3.35;;;;;;;;;;4976365;28;92428;-71
2022/09/29 04:37:22;;;;;;;5.78;3.80;;;;;;;;;;4980164;28;93086;-72
2022/09/29 04:39:51;;;;;;;3.88;3.03;;;;;;;;;;4977770;28;94851;-72
2022/09/29 04:42:18;;;;;;;3.60;3.00;;;;;;;;;;4977069;28;95540;-72
2022/09/29 04:44:44;;;;;;;5.15;3.05;;;;;;;;;;4979959;28;93393;-72
2022/09/29 04:47:10;;;;;;;7.32;3.15;;;;;;;;;;4990956;28;92654;-72
2022/09/29 04:49:36;;;;;;;4.00;3.03;;;;;;;;;;4977361;28;93815;-72
2022/09/29 04:52:03;;;;;;;3.60;3.30;;;;;;;;;;4973618;28;94624;-71
2022/09/29 04:54:33;;;;;;;3.83;3.42;;;;;;;;;;4978982;28;92515;-72
2022/09/29 04:57:03;;;;;;;3.13;2.83;;;;;;;;;;4965695;28;93618;-71
2022/09/29 04:59:29;;;;;;;3.25;2.95;;;;;;;;;;4981791;28;94556;-72
2022/09/29 05:01:56;;;;;;;4.50;2.70;;;;;;;;;;4970527;28;94100;-72
2022/09/29 05:04:22;;;;;;;4.00;3.30;;;;;;;;;;4986223;28;95878;-71
2022/09/29 05:06:48;;;;;;;4.82;3.03;;;;;;;;;;4981103;28;92501;-71
2022/09/29 05:09:14;;;;;;;3.42;2.83;;;;;;;;;;4983672;28;92606;-72
2022/09/29 05:11:41;;;;;;;4.68;3.22;;;;;;;;;;4972885;28;93958;-71
2022/09/29 05:14:07;;;;;;;10.05;3.30;;;;;;;;;;4976071;28;92381;-71
2022/09/29 05:16:33;;;;;;;4.75;3.78;;;;;;;;;;4968251;28;92455;-72
2022/09/29 05:19:00;;;;;;;4.97;3.60;;;;;;;;;;4972377;28;93488;-71
2022/09/29 05:21:26;;;;;;;5.50;3.50;;;;;;;;;;4984354;28;91705;-72
2022/09/29 05:23:55;;;;;;;5.45;4.07;;;;;;;;;;4980587;28;93456;-71
2022/09/29 05:26:21;;;;;;;6.22;4.25;;;;;;;;;;4975961;28;93240;-72
2022/09/29 05:28:47;;;;;;;12.80;4.63;;;;;;;;;;4986112;28;94963;-72
2022/09/29 05:31:13;;;;;;;8.02;4.00;;;;;;;;;;4972929;28;92532;-71
2022/09/29 05:33:40;;;;;;;13.90;5.03;;;;;;;;;;4978228;28;92600;-71
2022/09/29 05:36:07;;;;;;;8.73;4.35;;;;;;;;;;4992019;28;94157;-71
2022/09/29 05:38:35;;;;;;;6.05;3.95;;;;;;;;;;4974257;28;93437;-71
2022/09/29 05:41:09;;;;;;;8.88;3.85;;;;;;;;;;4974561;28;92491;-71
2022/09/29 05:43:36;;;;;;;7.63;3.75;;;;;;;;;;4975910;28;93126;-72
2022/09/29 05:46:03;;;;;;;6.25;4.18;;;;;;;;;;4976360;28;91706;-72
2022/09/29 05:48:29;;;;;;;6.80;3.83;;;;;;;;;;4984420;28;93537;-72
2022/09/29 05:50:59;;;;;;;15.25;6.18;;;;;;;;;;4973080;28;93789;-70
2022/09/29 05:53:25;;;;;;;10.35;4.78;;;;;;;;;;5002825;28;95520;-72
2022/09/29 05:55:52;;;;;;;34.80;7.30;;;;;;;;;;4976573;28;95554;-71
2022/09/29 05:58:18;;;;;;;24.77;7.22;;;;;;;;;;4973772;28;94526;-72
2022/09/29 06:00:44;;;;;;;13.85;6.95;;;;;;;;;;4972080;28;92403;-72
2022/09/29 06:03:11;;;;;;;10.90;6.05;;;;;;;;;;4972947;28;93246;-72
2022/09/29 06:05:38;;;;;;;17.98;5.18;;;;;;;;;;4978569;28;93755;-72
2022/09/29 06:08:05;;;;;;;12.93;5.93;;;;;;;;;;4973221;28;92421;-71
2022/09/29 06:10:31;;;;;;;15.82;6.35;;;;;;;;;;4984642;28;91776;-71
2022/09/29 06:12:58;;;;;;;12.90;6.00;;;;;;;;;;4984493;28;92522;-71
2022/09/29 06:15:24;;;;;;;25.75;5.55;;;;;;;;;;4975651;28;93188;-71
2022/09/29 06:17:54;;;;;;;26.73;6.60;;;;;;;;;;4985206;28;96861;-72
2022/09/29 06:20:20;;;;;;;10.55;5.40;;;;;;;;;;4980603;28;93000;-71
2022/09/29 06:22:47;;;;;;;15.90;5.68;;;;;;;;;;4983701;28;94560;-70
2022/09/29 06:25:14;;;;;;;15.05;5.60;;;;;;;;;;4969842;28;92500;-71
2022/09/29 06:27:40;;;;;;;8.32;5.30;;;;;;;;;;4975951;28;92407;-72
2022/09/29 06:30:06;;;;;;;14.85;5.72;;;;;;;;;;4974390;28;94352;-71
2022/09/29 06:32:34;;;;;;;15.20;6.03;;;;;;;;;;4973224;28;92683;-71
2022/09/29 06:37:45;;;;;;;14.63;5.90;;;;;;;;;;4972451;28;93392;-76
2022/09/29 06:40:12;;;;;;;43.58;7.20;;;;;;;;;;4980792;28;92659;-72
2022/09/29 06:42:38;;;;;;;10.43;5.90;;;;;;;;;;4978905;28;95887;-71
2022/09/29 06:45:05;;;;;;;13.60;6.47;;;;;;;;;;4969894;28;93440;-71
2022/09/29 06:47:31;;;;;;;24.90;5.43;;;;;;;;;;4982752;28;92524;-74
2022/09/29 06:50:01;;;;;;;12.15;6.72;;;;;;;;;;4991372;28;93438;-72
2022/09/29 06:52:42;;;;;;;15.38;6.70;;;;;;;;;;4982703;28;92675;-70
2022/09/29 06:55:17;;;;;;;13.82;7.63;;;;;;;;;;4973976;28;93166;-75
2022/09/29 06:57:44;;;;;;;24.30;8.98;;;;;;;;;;4975577;28;93442;-76
2022/09/29 07:00:11;;;;;;;20.55;10.10;;;;;;;;;;4975366;28;94004;-76
2022/09/29 07:02:37;;;;;;;23.42;11.30;;;;;;;;;;4982813;28;92760;-74
2022/09/29 07:05:03;;;;;;;16.65;10.18;;;;;;;;;;4954612;28;93468;-72
2022/09/29 07:07:29;;;;;;;22.08;9.98;;;;;;;;;;4963712;28;94874;-74
2022/09/29 07:09:56;;;;;;;19.25;10.85;;;;;;;;;;4976195;28;95566;-76
2022/09/29 07:12:22;;;;;;;15.73;8.75;;;;;;;;;;4973654;28;92468;-72
2022/09/29 07:14:48;;;;;;;14.32;8.80;;;;;;;;;;4973107;28;94164;-75
2022/09/29 07:17:14;;;;;;;13.25;8.60;;;;;;;;;;4974631;28;93786;-76
2022/09/29 07:19:41;;;;;;;20.90;9.18;;;;;;;;;;4992824;28;92563;-72
2022/09/29 07:22:08;;;;;;;33.22;9.82;;;;;;;;;;4988767;28;93187;-74
2022/09/29 07:24:35;;;;;;;18.13;9.82;;;;;;;;;;4994930;28;93029;-73
2022/09/29 07:27:01;;;;;;;38.85;9.13;;;;;;;;;;4994784;28;92405;-72
2022/09/29 07:29:31;;;;;;;29.27;9.65;;;;;;;;;;4994532;28;93161;-72
2022/09/29 07:31:58;;;;;;;22.40;9.23;;;;;;;;;;4977355;28;96851;-70
2022/09/29 07:34:24;;;;;;;54.83;10.75;;;;;;;;;;4974631;28;95995;-74
2022/09/29 07:36:50;;;;;;;17.73;9.18;;;;;;;;;;4977785;28;93417;-73
2022/09/29 07:39:18;;;;;;;24.63;10.18;;;;;;;;;;4974563;28;92441;-73
2022/09/29 07:41:45;;;;;;;23.88;10.13;;;;;;;;;;4962593;28;93979;-72
2022/09/29 07:44:11;;;;;;;19.35;10.07;;;;;;;;;;4972091;28;93401;-71
2022/09/29 07:46:37;;;;;;;23.10;11.13;;;;;;;;;;4980327;28;92428;-73
2022/09/29 07:49:04;;;;;;;53.42;12.07;;;;;;;;;;4978152;28;93203;-73
2022/09/29 07:51:31;;;;;;;32.53;13.43;;;;;;;;;;4976855;28;93728;-73
2022/09/29 07:54:01;;;;;;;31.10;14.50;;;;;;;;;;4985425;28;93492;-73
2022/09/29 07:56:27;;;;;;;46.25;15.50;;;;;;;;;;4963009;28;96194;-72
2022/09/29 07:58:54;;;;;;;21.80;15.00;;;;;;;;;;4958395;28;92744;-73
2022/09/29 08:01:21;;;;;;;42.55;18.20;;;;;;;;;;4976947;28;93185;-72
2022/09/29 08:03:49;;;;;;;30.88;16.90;;;;;;;;;;4977784;28;94010;-72
2022/09/29 08:06:15;;;;;;;28.90;16.40;;;;;;;;;;4976793;28;92423;-74
2022/09/29 08:08:42;;;;;;;31.25;17.90;;;;;;;;;;4976991;28;94322;-73
2022/09/29 08:11:25;;;;;;;41.92;18.70;;;;;;;;;;4975196;28;93651;-72
2022/09/29 08:13:57;;;;;;;33.88;18.85;;;;;;;;;;4977139;28;91847;-72
2022/09/29 08:16:24;;;;;;;37.22;19.42;;;;;;;;;;4979922;28;93572;-72
2022/09/29 08:18:50;;;;;;;48.58;22.38;;;;;;;;;;4965870;28;93837;-72
2022/09/29 08:21:16;;;;;;;47.00;20.35;;;;;;;;;;4956327;28;94818;-72
2022/09/29 08:23:43;;;;;;;31.92;20.33;;;;;;;;;;4974889;28;94087;-72
2022/09/29 08:26:14;;;;;;;39.95;23.30;;;;;;;;;;4977203;28;92395;-72
2022/09/29 08:28:40;;;;;;;;;;;;;;;;;;4976528;28;93177;-75
2022/09/29 08:31:08;;;;;;;46.53;23.30;;;;;;;;;;4971085;28;124221;-72
2022/09/29 08:33:35;;;;;;;47.55;24.63;;;;;;;;;;4976664;28;92454;-72
2022/09/29 08:36:04;;;;;;;42.58;24.23;;;;;;;;;;4974566;28;93246;-71
2022/09/29 08:38:30;;;;;;;41.90;24.95;;;;;;;;;;4979973;28;92581;-71
2022/09/29 08:41:01;;;;;;;40.53;25.30;;;;;;;;;;4975828;28;93622;-72
2022/09/29 08:43:33;;;;;;;47.45;26.08;;;;;;;;;;4976738;28;94526;-71
2022/09/29 08:46:06;;;;;;;51.15;26.65;;;;;;;;;;4974727;28;94944;-72
2022/09/29 08:48:35;;;;;;;50.35;26.60;;;;;;;;;;4976460;28;95729;-71
2022/09/29 08:51:11;;;;;;;45.60;27.10;;;;;;;;;;4960299;28;93484;-73
2022/09/29 08:53:39;;;;;;;46.75;27.65;;;;;;;;;;4977012;28;92397;-74
2022/09/29 08:56:08;;;;;;;45.15;28.48;;;;;;;;;;4975151;28;93096;-74
2022/09/29 08:58:36;;;;;;;53.15;29.83;;;;;;;;;;4978635;28;93436;-72
2022/09/29 09:01:08;;;;;;;51.50;31.05;;;;;;;;;;4974357;28;93681;-73
2022/09/29 09:03:42;;;;;;;53.60;31.50;;;;;;;;;;4996879;28;92872;-73
2022/09/29 09:06:09;;;;;;;51.72;31.83;;;;;;;;;;4976414;28;92494;-72
2022/09/29 09:08:49;;;;;;;57.70;31.75;;;;;;;;;;4968598;28;94217;-72
2022/09/29 09:11:28;;;;;;;55.38;31.92;;;;;;;;;;4985755;28;97168;-73
2022/09/29 09:14:18;;;;;;;58.75;34.42;;;;;;;;;;4992209;28;92493;-73
2022/09/29 09:16:47;;;;;;;53.27;33.37;;;;;;;;;;4974821;28;94189;-73
2022/09/29 09:19:34;;;;;;;60.92;35.38;;;;;;;;;;4980218;28;93400;-72
2022/09/29 09:22:03;;;;;;;56.78;35.35;;;;;;;;;;4959546;28;92745;-72
2022/09/29 09:24:43;;;;;;;60.08;34.90;;;;;;;;;;4956159;28;93553;-73
2022/09/29 09:27:19;;;;;;;68.47;35.40;;;;;;;;;;4964853;28;92972;-72
2022/09/29 09:29:46;;;;;;;53.60;32.95;;;;;;;;;;4971425;28;94378;-76
2022/09/29 09:32:15;;;;;;;55.85;33.88;;;;;;;;;;4973223;28;93607;-74
2022/09/29 09:34:57;;;;;;;64.70;36.45;;;;;;;;;;4973365;28;92436;-75
2022/09/29 09:37:38;;;;;;;60.50;35.45;;;;;;;;;;4980099;28;94824;-73
2022/09/29 09:40:19;;;;;;;56.05;34.47;;;;;;;;;;4974921;28;94635;-74
2022/09/29 09:42:49;;;;;;;58.83;33.90;;;;;;;;;;4975560;28;92417;-72
2022/09/29 09:45:22;;;;;;;58.83;35.83;;;;;;;;;;4978783;28;93232;-71
2022/09/29 09:48:12;;;;;;;56.38;34.40;;;;;;;;;;4974170;28;92407;-73
2022/09/29 09:50:41;;;;;;;48.03;30.83;;;;;;;;;;4974204;28;93125;-73
2022/09/29 09:53:14;;;;;;;54.08;31.67;;;;;;;;;;4976325;28;93389;-70
2022/09/29 09:55:42;;;;;;;46.35;31.30;;;;;;;;;;4991092;28;91840;-70
2022/09/29 09:58:29;;;;;;;46.63;30.30;;;;;;;;;;4975411;28;92351;-69
2022/09/29 10:01:03;;;;;;;49.47;31.20;;;;;;;;;;4960915;28;94450;-75
2022/09/29 10:03:30;;;;;;;47.42;28.15;;;;;;;;;;4954734;28;94870;-71
2022/09/29 10:05:56;;;;;;;43.35;27.05;;;;;;;;;;4955898;28;95594;-69
2022/09/29 10:08:28;;;;;;;40.53;27.77;;;;;;;;;;4975691;28;93832;-71
2022/09/29 10:10:55;;;;;;;38.90;25.33;;;;;;;;;;4965783;28;93205;-71
2022/09/29 10:13:28;;;;;;;38.45;26.83;;;;;;;;;;4974334;28;94648;-71
2022/09/29 10:15:57;;;;;;;49.50;26.15;;;;;;;;;;4975114;28;92375;-73
2022/09/29 10:18:26;;;;;;;38.70;26.50;;;;;;;;;;4969059;28;94188;-72
2022/09/29 10:20:52;;;;;;;37.20;25.95;;;;;;;;;;4974120;28;93677;-72
2022/09/29 10:23:19;;;;;;;37.28;23.73;;;;;;;;;;4972950;28;92510;-71
2022/09/29 10:25:54;;;;;;;30.15;22.10;;;;;;;;;;4973066;28;93257;-72
2022/09/29 10:28:21;;;;;;;40.58;24.23;;;;;;;;;;4972315;28;96945;-71
2022/09/29 10:30:47;;;;;;;33.42;23.85;;;;;;;;;;4977492;28;92490;-71
2022/09/29 10:33:17;;;;;;;33.22;22.77;;;;;;;;;;4975627;28;93495;-72
2022/09/29 10:35:44;;;;;;;31.42;20.00;;;;;;;;;;4955878;28;92471;-71
2022/09/29 10:38:37;;;;;;;30.92;21.20;;;;;;;;;;4961737;28;93818;-69
2022/09/29 10:41:08;;;;;;;29.30;18.33;;;;;;;;;;4965289;28;93356;-70
2022/09/29 10:43:38;;;;;;;24.77;18.10;;;;;;;;;;4974045;28;92830;-71
2022/09/29 10:46:26;;;;;;;21.35;15.60;;;;;;;;;;4973860;28;91636;-71
2022/09/29 10:49:12;;;;;;;22.45;13.70;;;;;;;;;;4971963;28;94660;-71
2022/09/29 10:51:38;;;;;;;19.67;12.80;;;;;;;;;;4972501;28;92417;-70
2022/09/29 10:54:09;;;;;;;13.25;11.65;;;;;;;;;;4975700;28;94748;-71
2022/09/29 10:56:36;;;;;;;19.92;14.80;;;;;;;;;;4970931;28;92669;-71
2022/09/29 10:59:02;;;;;;;19.67;14.20;;;;;;;;;;4966814;28;93211;-70
2022/09/29 11:01:33;;;;;;;19.52;14.00;;;;;;;;;;4966912;28;93403;-70
2022/09/29 11:04:05;;;;;;;19.55;12.65;;;;;;;;;;4963308;28;92554;-73
2022/09/29 11:06:32;;;;;;;15.23;12.30;;;;;;;;;;4975587;28;93223;-73
2022/09/29 11:09:00;;;;;;;10.68;8.43;;;;;;;;;;4973907;28;93577;-73
2022/09/29 11:11:28;;;;;;;9.38;7.03;;;;;;;;;;4975472;28;91922;-73
2022/09/29 11:13:55;;;;;;;17.23;13.48;;;;;;;;;;4980501;28;92678;-73
2022/09/29 11:16:25;;;;;;;19.70;13.00;;;;;;;;;;4973834;28;92511;-72
2022/09/29 11:18:52;;;;;;;15.65;12.07;;;;;;;;;;4970330;28;94898;-71
2022/09/29 11:21:19;;;;;;;19.08;12.30;;;;;;;;;;4971659;28;94337;-72
2022/09/29 11:23:53;;;;;;;16.58;12.48;;;;;;;;;;4973275;28;92488;-72
2022/09/29 11:26:25;;;;;;;16.15;11.35;;;;;;;;;;4988318;28;93205;-71
2022/09/29 11:29:06;;;;;;;18.05;11.00;;;;;;;;;;4980565;28;94582;-72
2022/09/29 11:31:35;;;;;;;12.35;9.18;;;;;;;;;;4974317;28;92464;-72
2022/09/29 11:34:21;;;;;;;11.45;8.45;;;;;;;;;;4974813;28;93620;-72
2022/09/29 11:37:01;;;;;;;9.88;7.43;;;;;;;;;;4972414;28;93777;-72
2022/09/29 11:39:47;;;;;;;9.15;6.88;;;;;;;;;;4971594;28;92473;-70
2022/09/29 11:42:22;;;;;;;7.78;5.20;;;;;;;;;;4973125;28;92409;-71
2022/09/29 11:44:58;;;;;;;9.43;5.80;;;;;;;;;;4968874;28;95175;-70
2022/09/29 11:47:31;;;;;;;8.57;5.90;;;;;;;;;;4997547;28;96596;-72
2022/09/29 11:50:09;;;;;;;5.25;4.75;;;;;;;;;;4983177;28;94400;-72
2022/09/29 11:52:50;;;;;;;5.90;5.07;;;;;;;;;;4975025;28;92431;-69
2022/09/29 11:55:32;;;;;;;5.65;4.90;;;;;;;;;;4971898;28;93796;-70
2022/09/29 11:58:17;;;;;;;4.95;4.20;;;;;;;;;;4980561;28;93262;-70
2022/09/29 12:01:02;;;;;;;3.83;3.50;;;;;;;;;;4979169;28;92472;-71
2022/09/29 12:03:29;;;;;;;6.53;4.18;;;;;;;;;;4974706;28;92728;-70
2022/09/29 12:06:10;;;;;;;8.43;5.28;;;;;;;;;;4973828;28;92485;-70
2022/09/29 12:08:48;;;;;;;8.65;6.32;;;;;;;;;;4967711;28;92406;-71
2022/09/29 12:11:14;;;;;;;9.85;6.40;;;;;;;;;;4970462;28;96963;-68
2022/09/29 12:14:23;;;;;;;7.60;6.60;;;;;;;;;;4974593;28;92473;-68
2022/09/29 12:16:56;;;;;;;8.90;6.85;;;;;;;;;;4973493;28;93122;-68
2022/09/29 12:19:23;;;;;;;9.43;6.75;;;;;;;;;;4972231;28;93398;-68
2022/09/29 12:21:51;;;;;;;9.88;6.45;;;;;;;;;;4974240;28;92567;-67
2022/09/29 12:24:26;;;;;;;7.07;5.72;;;;;;;;;;4977597;28;94643;-68
2022/09/29 12:26:53;;;;;;;9.23;5.80;;;;;;;;;;4988499;28;92484;-68
2022/09/29 12:29:22;;;;;;;6.55;5.35;;;;;;;;;;4974053;28;92961;-68
2022/09/29 12:31:49;;;;;;;10.70;5.78;;;;;;;;;;4977043;28;94470;-68
2022/09/29 12:34:27;;;;;;;5.70;5.07;;;;;;;;;;4977353;28;92546;-68
2022/09/29 12:37:01;;;;;;;6.22;4.97;;;;;;;;;;4974034;28;94827;-69
2022/09/29 12:39:38;;;;;;;4.65;4.13;;;;;;;;;;4987030;28;94502;-68
2022/09/29 12:42:24;;;;;;;4.72;3.80;;;;;;;;;;4982413;28;92452;-66
2022/09/29 12:45:04;;;;;;;7.45;3.90;;;;;;;;;;4976167;28;93134;-65
2022/09/29 12:47:44;;;;;;;6.65;4.50;;;;;;;;;;4982839;28;93398;-66
2022/09/29 12:50:16;;;;;;;5.43;3.70;;;;;;;;;;4994958;28;94290;-66
2022/09/29 12:52:48;;;;;;;4.25;3.60;;;;;;;;;;4979290;28;93420;-66
2022/09/29 12:55:24;;;;;;;13.02;4.10;;;;;;;;;;4973510;28;91891;-67
2022/09/29 12:57:52;;;;;;;4.22;3.20;;;;;;;;;;4975976;28;92385;-67
2022/09/29 13:00:19;;;;;;;6.85;3.60;;;;;;;;;;4976915;28;93394;-67
2022/09/29 13:03:03;;;;;;;3.50;3.13;;;;;;;;;;4974226;28;94855;-67
2022/09/29 13:05:35;;;;;;;18.48;4.00;;;;;;;;;;4973704;28;95714;-66
2022/09/29 13:08:25;;;;;;;6.20;3.33;;;;;;;;;;4976949;28;94372;-67
2022/09/29 13:10:54;;;;;;;3.85;3.22;;;;;;;;;;4976983;28;92680;-67
2022/09/29 13:13:39;;;;;;;3.63;3.10;;;;;;;;;;4971893;28;93778;-67
2022/09/29 13:16:20;;;;;;;4.43;3.20;;;;;;;;;;4964582;28;92834;-67
2022/09/29 13:18:55;;;;;;;3.97;3.58;;;;;;;;;;4954825;28;93315;-66
2022/09/29 13:21:55;;;;;;;5.95;3.30;;;;;;;;;;4957414;28;93106;-69
2022/09/29 13:24:36;;;;;;;5.43;3.63;;;;;;;;;;4964642;28;93550;-66
2022/09/29 13:27:20;;;;;;;5.68;3.50;;;;;;;;;;4965100;28;93125;-67
2022/09/29 13:29:49;;;;;;;7.25;3.30;;;;;;;;;;4972070;28;95987;-68
2022/09/29 13:32:15;;;;;;;5.65;3.67;;;;;;;;;;4976226;28;92461;-69
2022/09/29 13:34:46;;;;;;;3.45;2.95;;;;;;;;;;4966005;28;92541;-68
2022/09/29 13:37:12;;;;;;;;;;;;;;;;;;4954818;28;92478;-69
2022/09/29 13:39:41;;;;;;;5.82;2.90;;;;;;;;;;4966179;28;123641;-70
2022/09/29 13:42:36;;;;;;;4.18;2.85;;;;;;;;;;4964689;28;93402;-67
2022/09/29 13:45:14;;;;;;;5.15;3.25;;;;;;;;;;4974049;28;92497;-67
2022/09/29 13:47:48;;;;;;;6.38;2.78;;;;;;;;;;4974853;28;93223;-67
2022/09/29 13:50:33;;;;;;;4.07;3.13;;;;;;;;;;4973569;28;93716;-68
2022/09/29 13:53:31;;;;;;;4.78;2.67;;;;;;;;;;4986170;28;92677;-69
2022/09/29 13:56:00;;;;;;;4.82;3.00;;;;;;;;;;4972648;28;95013;-70
2022/09/29 13:58:28;;;;;;;5.35;3.60;;;;;;;;;;4973198;28;92441;-70
2022/09/29 14:00:56;;;;;;;6.35;4.25;;;;;;;;;;4975613;28;93229;-69
2022/09/29 14:03:24;;;;;;;8.20;3.88;;;;;;;;;;4972638;28;93182;-68
2022/09/29 14:05:53;;;;;;;8.20;3.90;;;;;;;;;;4972954;28;92533;-69
2022/09/29 14:08:26;;;;;;;9.35;4.03;;;;;;;;;;4974325;28;94106;-68
2022/09/29 14:10:58;;;;;;;6.28;3.30;;;;;;;;;;4975790;28;93443;-69
2022/09/29 14:13:30;;;;;;;6.00;4.05;;;;;;;;;;4973345;28;92541;-68
2022/09/29 14:16:09;;;;;;;6.43;3.65;;;;;;;;;;4973546;28;92761;-70
2022/09/29 14:18:37;;;;;;;5.35;3.80;;;;;;;;;;4976150;28;93640;-67
2022/09/29 14:21:05;;;;;;;9.88;3.78;;;;;;;;;;4974025;28;94853;-68
2022/09/29 14:23:44;;;;;;;4.10;3.70;;;;;;;;;;4969503;28;94027;-69
2022/09/29 14:26:29;;;;;;;7.25;3.20;;;;;;;;;;4976440;28;92664;-68
2022/09/29 14:28:56;;;;;;;8.50;4.10;;;;;;;;;;4975205;28;93141;-68
2022/09/29 14:31:23;;;;;;;5.13;3.90;;;;;;;;;;4975533;28;93593;-69
2022/09/29 14:33:52;;;;;;;6.47;3.60;;;;;;;;;;4982960;28;92507;-69
2022/09/29 14:36:20;;;;;;;5.65;3.38;;;;;;;;;;4986684;28;93907;-68
2022/09/29 14:38:48;;;;;;;6.40;4.22;;;;;;;;;;4986152;28;93749;-67
2022/09/29 14:41:39;;;;;;;4.28;3.58;;;;;;;;;;4987896;28;92461;-69
2022/09/29 14:44:16;;;;;;;9.88;3.20;;;;;;;;;;4962808;28;93760;-70
2022/09/29 14:52:52;;;;;;;5.00;2.60;;;;;;;;;;4955884;28;94558;-70
2022/09/29 14:55:24;;;;;;;6.25;2.75;;;;;;;;;;4955301;28;92519;-69
2022/09/29 14:57:57;;;;;;;7.80;2.38;;;;;;;;;;4974509;28;94192;-69
2022/09/29 15:00:28;;;;;;;4.03;2.63;;;;;;;;;;4985015;28;94859;-70
2022/09/29 15:02:55;;;;;;;2.65;2.42;;;;;;;;;;4985587;28;93249;-70
2022/09/29 15:05:36;;;;;;;5.85;2.92;;;;;;;;;;4990287;28;93115;-70